Time;durP1;ratioP1;P1;durP2;ratioP2;P2;SDS_P1;SDS_P2;PMS_P1;PMS_P2;Temp;Humidity;BMP_temperature;BMP_pressure;BME280_temperature;BME280_humidity;BME280_pressure;Samples;Min_cycle;Max_cycle;Signal;HPM_P1;HPM_P2
2023/11/04 00:02:14;;;;;;;1.08;0.60;;;9.00;71.80;;;;;;4854562;29;20046;-86
2023/11/04 00:04:42;;;;;;;2.50;1.00;;;9.00;71.80;;;;;;4840176;29;20497;-86
2023/11/04 00:07:09;;;;;;;1.15;0.65;;;9.10;71.80;;;;;;4855343;29;20565;-86
2023/11/04 00:09:37;;;;;;;1.50;0.60;;;9.10;71.60;;;;;;4857269;29;20053;-86
2023/11/04 00:12:17;;;;;;;1.33;0.70;;;9.00;71.80;;;;;;4843383;29;20062;-86
2023/11/04 00:14:44;;;;;;;2.47;0.50;;;9.00;71.60;;;;;;4843444;29;20042;-86
2023/11/04 00:17:11;;;;;;;4.97;0.52;;;9.00;71.50;;;;;;4843347;29;20052;-86
2023/11/04 00:19:38;;;;;;;1.42;0.60;;;9.00;71.60;;;;;;4829513;29;20401;-85
2023/11/04 00:22:06;;;;;;;1.67;0.70;;;9.00;71.60;;;;;;4843474;29;20401;-86
2023/11/04 00:24:34;;;;;;;1.63;0.60;;;9.00;71.50;;;;;;4858515;29;20386;-86
2023/11/04 00:27:01;;;;;;;1.48;0.80;;;9.00;71.50;;;;;;4843053;29;20476;-86
2023/11/04 00:29:28;;;;;;;1.00;0.40;;;9.10;71.40;;;;;;4843410;29;20056;-86
2023/11/04 00:31:55;;;;;;;1.40;0.50;;;9.20;70.90;;;;;;4858345;29;20093;-86
2023/11/04 00:34:22;;;;;;;1.30;0.60;;;9.20;71.00;;;;;;4858936;29;20042;-86
2023/11/04 00:36:49;;;;;;;1.00;0.60;;;9.20;70.40;;;;;;4843347;29;20054;-87
2023/11/04 00:39:17;;;;;;;1.48;0.57;;;9.20;69.90;;;;;;4843107;29;20050;-86
2023/11/04 00:41:44;;;;;;;5.05;1.23;;;9.20;69.70;;;;;;4858496;29;20405;-86
2023/11/04 00:44:14;;;;;;;2.38;0.93;;;9.20;69.90;;;;;;4843539;29;20405;-90
2023/11/04 00:46:41;;;;;;;3.00;1.60;;;9.20;69.80;;;;;;4843645;29;20050;-88
2023/11/04 00:49:08;;;;;;;4.53;1.80;;;9.30;70.00;;;;;;4845957;29;20137;-88
2023/11/04 00:51:36;;;;;;;3.42;1.70;;;9.40;70.10;;;;;;4843770;29;20110;-89
2023/11/04 00:54:04;;;;;;;1.70;0.80;;;9.50;69.50;;;;;;4858902;29;20046;-88
2023/11/04 00:56:33;;;;;;;2.15;1.10;;;9.40;69.00;;;;;;4859350;29;20062;-88
2023/11/04 00:59:00;;;;;;;2.80;1.00;;;9.40;69.30;;;;;;4842646;29;20054;-89
2023/11/04 01:01:27;;;;;;;3.40;1.70;;;9.40;69.50;;;;;;4843652;29;20521;-89
2023/11/04 01:03:54;;;;;;;4.05;1.70;;;9.40;69.60;;;;;;4858678;29;20092;-89
2023/11/04 01:06:21;;;;;;;3.08;1.60;;;9.40;69.80;;;;;;4843899;29;20050;-88
2023/11/04 01:08:48;;;;;;;2.70;1.65;;;9.40;69.70;;;;;;4843374;29;20049;-89
2023/11/04 01:11:17;;;;;;;2.00;0.87;;;9.50;69.60;;;;;;4843446;29;20133;-88
2023/11/04 01:13:44;;;;;;;1.60;0.88;;;9.50;69.20;;;;;;4857504;29;20102;-88
2023/11/04 01:16:11;;;;;;;2.58;1.10;;;9.50;69.40;;;;;;4849791;29;20041;-88
2023/11/04 01:18:39;;;;;;;2.45;0.70;;;9.50;69.20;;;;;;4848534;29;20035;-89
2023/11/04 01:21:06;;;;;;;1.20;0.70;;;9.50;69.50;;;;;;4842631;29;20145;-89
2023/11/04 01:23:33;;;;;;;3.50;1.23;;;9.40;69.00;;;;;;4852271;29;20053;-89
2023/11/04 01:26:00;;;;;;;2.22;1.20;;;9.30;69.60;;;;;;4843215;29;20525;-89
2023/11/04 01:28:28;;;;;;;2.40;0.80;;;9.40;69.80;;;;;;4851028;29;20126;-89
2023/11/04 01:30:55;;;;;;;2.22;0.90;;;9.50;68.90;;;;;;4842950;29;20050;-88
2023/11/04 01:33:22;;;;;;;2.13;1.10;;;9.50;69.00;;;;;;4842813;29;20048;-89
2023/11/04 01:35:49;;;;;;;1.53;0.70;;;9.40;68.60;;;;;;4857932;29;20050;-88
2023/11/04 01:38:16;;;;;;;1.98;0.68;;;9.40;68.80;;;;;;4827812;29;20034;-88
2023/11/04 01:40:51;;;;;;;1.20;0.60;;;9.50;69.20;;;;;;4842717;29;20398;-88
2023/11/04 01:43:28;;;;;;;1.52;0.70;;;9.50;69.30;;;;;;4858264;29;20046;-88
2023/11/04 01:46:17;;;;;;;1.70;0.50;;;9.50;69.10;;;;;;4858165;29;20528;-88
2023/11/04 01:48:45;;;;;;;3.40;0.60;;;9.50;69.50;;;;;;4858187;29;20513;-89
2023/11/04 01:51:14;;;;;;;1.02;0.50;;;9.50;68.90;;;;;;4849744;29;20049;-88
2023/11/04 01:53:53;;;;;;;1.83;0.70;;;9.50;68.70;;;;;;4827476;29;20054;-88
2023/11/04 01:56:39;;;;;;;1.75;0.80;;;9.50;69.00;;;;;;4857601;29;20512;-88
2023/11/04 01:59:10;;;;;;;2.65;0.90;;;9.50;68.90;;;;;;4858024;29;20564;-88
2023/11/04 02:01:40;;;;;;;1.80;0.70;;;9.50;68.70;;;;;;4860200;29;20050;-88
2023/11/04 02:04:07;;;;;;;1.63;0.60;;;9.60;69.30;;;;;;4857785;29;20140;-88
2023/11/04 02:06:34;;;;;;;1.50;0.73;;;9.60;68.70;;;;;;4842564;29;20048;-88
2023/11/04 02:09:01;;;;;;;1.70;0.63;;;9.60;68.60;;;;;;4842602;29;20117;-88
2023/11/04 02:11:29;;;;;;;1.80;0.65;;;9.60;68.90;;;;;;4857411;29;20076;-88
2023/11/04 02:13:56;;;;;;;1.93;0.70;;;9.50;68.80;;;;;;4842227;29;20066;-88
2023/11/04 02:16:23;;;;;;;1.83;0.85;;;9.60;69.20;;;;;;4857458;29;20042;-88
2023/11/04 02:18:51;;;;;;;2.30;0.80;;;9.60;69.00;;;;;;4842572;29;20069;-88
2023/11/04 02:21:18;;;;;;;1.85;0.75;;;9.50;69.20;;;;;;4842260;29;20053;-88
2023/11/04 02:23:45;;;;;;;1.52;0.70;;;9.50;68.80;;;;;;4848678;29;20049;-88
2023/11/04 02:26:12;;;;;;;2.27;0.80;;;9.40;68.30;;;;;;4857225;29;20064;-88
2023/11/04 02:28:39;;;;;;;2.40;0.70;;;9.40;68.30;;;;;;4843513;29;20094;-88
2023/11/04 02:31:06;;;;;;;4.00;0.90;;;9.40;68.70;;;;;;4856254;29;20061;-88
2023/11/04 02:33:34;;;;;;;2.45;0.75;;;9.50;68.90;;;;;;4841967;29;20052;-88
2023/11/04 02:36:01;;;;;;;2.60;0.90;;;9.50;68.80;;;;;;4842030;29;20397;-88
2023/11/04 02:38:29;;;;;;;3.13;0.80;;;9.50;68.90;;;;;;4841683;29;20427;-88
2023/11/04 02:40:56;;;;;;;2.50;0.50;;;9.40;68.90;;;;;;4856996;29;20046;-88
2023/11/04 02:43:23;;;;;;;2.97;0.88;;;9.40;68.30;;;;;;4841461;29;21373;-88
2023/11/04 02:45:50;;;;;;;2.20;0.70;;;9.50;68.50;;;;;;4855986;29;20041;-88
2023/11/04 02:48:17;;;;;;;2.38;0.88;;;9.50;68.20;;;;;;4840879;29;20050;-88
2023/11/04 02:50:44;;;;;;;4.10;0.73;;;9.50;68.70;;;;;;4841754;29;20125;-88
2023/11/04 02:53:11;;;;;;;2.03;0.60;;;9.50;68.90;;;;;;4841379;29;20077;-89
2023/11/04 02:55:39;;;;;;;2.80;0.93;;;9.50;68.60;;;;;;4841686;29;20098;-88
2023/11/04 02:58:06;;;;;;;2.33;0.80;;;9.50;68.50;;;;;;4841417;29;20079;-88
2023/11/04 03:00:33;;;;;;;4.95;1.10;;;9.60;68.20;;;;;;4848360;29;20042;-88
2023/11/04 03:03:01;;;;;;;4.77;0.70;;;9.60;67.90;;;;;;4856640;29;20057;-88
2023/11/04 03:05:28;;;;;;;2.15;0.98;;;9.60;68.20;;;;;;4841512;29;20133;-88
2023/11/04 03:08:03;;;;;;;2.97;0.60;;;9.50;68.20;;;;;;4841469;29;20102;-88
2023/11/04 03:10:32;;;;;;;2.97;0.65;;;9.70;68.10;;;;;;4856644;29;20081;-88
2023/11/04 03:12:59;;;;;;;2.53;0.80;;;9.70;67.90;;;;;;4841562;29;20049;-88
2023/11/04 03:15:26;;;;;;;2.67;0.87;;;9.70;67.20;;;;;;4856213;29;20058;-88
2023/11/04 03:17:53;;;;;;;1.77;0.80;;;9.70;67.40;;;;;;4857418;29;20075;-88
2023/11/04 03:20:21;;;;;;;2.97;0.93;;;9.60;67.60;;;;;;4841402;29;20413;-88
2023/11/04 03:22:48;;;;;;;4.13;0.90;;;9.70;67.50;;;;;;4850303;29;20409;-88
2023/11/04 03:25:15;;;;;;;1.73;0.77;;;9.80;67.80;;;;;;4856716;29;20106;-89
2023/11/04 03:27:42;;;;;;;2.53;0.70;;;9.80;67.30;;;;;;4841280;29;20148;-88
2023/11/04 03:30:10;;;;;;;1.92;0.60;;;9.80;67.30;;;;;;4856944;29;20054;-89
2023/11/04 03:32:37;;;;;;;2.67;0.90;;;9.80;67.30;;;;;;4842806;29;20493;-89
2023/11/04 03:35:05;;;;;;;2.92;0.80;;;9.80;67.50;;;;;;4856929;29;20070;-88
2023/11/04 03:37:34;;;;;;;1.40;0.73;;;9.80;67.40;;;;;;4841064;29;20052;-88
2023/11/04 03:40:01;;;;;;;1.63;0.70;;;9.70;67.20;;;;;;4841206;29;20046;-88
2023/11/04 03:42:28;;;;;;;1.85;0.80;;;9.70;67.50;;;;;;4841583;29;20471;-88
2023/11/04 03:44:55;;;;;;;2.60;0.80;;;9.60;67.40;;;;;;4843681;29;20054;-89
2023/11/04 03:47:22;;;;;;;3.25;0.73;;;9.60;67.40;;;;;;4860238;29;20060;-88
2023/11/04 03:49:50;;;;;;;2.38;0.80;;;9.70;67.90;;;;;;4859972;29;20054;-88
2023/11/04 03:52:17;;;;;;;1.73;0.70;;;9.60;67.60;;;;;;4844707;29;20524;-88
2023/11/04 03:54:43;;;;;;;4.95;0.75;;;9.60;67.30;;;;;;4860369;29;20413;-88
2023/11/04 03:57:10;;;;;;;4.40;0.93;;;9.60;67.80;;;;;;4844944;29;20056;-88
2023/11/04 03:59:38;;;;;;;3.83;0.77;;;9.70;67.60;;;;;;4844549;29;20129;-88
2023/11/04 04:02:07;;;;;;;3.25;1.00;;;9.60;67.50;;;;;;4859883;29;20099;-88
2023/11/04 04:04:34;;;;;;;4.30;0.80;;;9.60;67.40;;;;;;4844530;29;20080;-89
2023/11/04 04:07:01;;;;;;;4.45;1.00;;;9.60;67.30;;;;;;4859654;29;20046;-89
2023/11/04 04:09:28;;;;;;;2.67;0.60;;;9.60;67.40;;;;;;4859404;29;20060;-88
2023/11/04 04:11:57;;;;;;;4.25;1.20;;;9.60;67.70;;;;;;4859388;29;20120;-88
2023/11/04 04:14:25;;;;;;;4.03;1.00;;;9.60;67.50;;;;;;4859552;29;20432;-88
2023/11/04 04:16:51;;;;;;;1.87;0.70;;;9.60;67.30;;;;;;4844361;29;20046;-88
2023/11/04 04:19:19;;;;;;;2.28;1.02;;;9.50;67.20;;;;;;4844532;29;20142;-88
2023/11/04 04:21:46;;;;;;;3.88;0.80;;;9.50;67.40;;;;;;4859433;29;20049;-88
2023/11/04 04:24:13;;;;;;;3.38;0.90;;;9.60;67.30;;;;;;4859682;29;20413;-89
2023/11/04 04:26:40;;;;;;;4.25;0.93;;;9.70;67.40;;;;;;4844185;29;20054;-89
2023/11/04 04:29:07;;;;;;;4.83;1.10;;;9.70;67.20;;;;;;4844335;29;20129;-88
2023/11/04 04:31:35;;;;;;;13.20;1.40;;;9.70;67.70;;;;;;4844232;29;20050;-88
2023/11/04 04:34:02;;;;;;;8.70;1.45;;;9.70;67.70;;;;;;4844221;29;20070;-88
2023/11/04 04:36:30;;;;;;;10.40;1.98;;;9.70;67.80;;;;;;4843949;29;20042;-88
2023/11/04 04:38:57;;;;;;;12.90;2.42;;;9.80;67.90;;;;;;4842805;29;20056;-89
2023/11/04 04:41:26;;;;;;;8.03;2.30;;;9.80;67.70;;;;;;4844094;29;20042;-88
2023/11/04 04:43:53;;;;;;;12.00;2.20;;;9.80;68.00;;;;;;4844287;29;20371;-88
2023/11/04 04:46:20;;;;;;;10.43;1.88;;;9.70;67.90;;;;;;4859059;29;20050;-88
2023/11/04 04:48:47;;;;;;;5.38;1.35;;;9.80;67.90;;;;;;4857762;29;20057;-89
2023/11/04 04:51:16;;;;;;;4.03;1.38;;;9.80;67.30;;;;;;4844141;29;20501;-88
2023/11/04 04:53:43;;;;;;;7.60;1.67;;;9.80;67.20;;;;;;4843788;29;20053;-88
2023/11/04 04:56:10;;;;;;;9.88;1.73;;;9.80;67.40;;;;;;4848349;29;20043;-88
2023/11/04 04:58:38;;;;;;;5.00;1.23;;;9.80;67.60;;;;;;4859100;29;20050;-88
2023/11/04 05:01:05;;;;;;;6.50;1.20;;;9.70;67.30;;;;;;4858884;29;20041;-89
2023/11/04 05:03:32;;;;;;;11.70;2.15;;;9.70;66.90;;;;;;4858767;29;20045;-88
2023/11/04 05:05:59;;;;;;;12.73;2.90;;;9.80;67.10;;;;;;4843546;29;20074;-88
2023/11/04 05:08:26;;;;;;;14.57;3.70;;;9.80;67.10;;;;;;4843417;29;20050;-89
2023/11/04 05:10:53;;;;;;;14.98;4.20;;;9.90;67.40;;;;;;4859094;29;20050;-88
2023/11/04 05:13:20;;;;;;;12.05;3.15;;;9.90;67.60;;;;;;4858874;29;20129;-89
2023/11/04 05:15:47;;;;;;;13.48;3.20;;;9.90;67.90;;;;;;4858865;29;20046;-89
2023/11/04 05:18:14;;;;;;;9.33;3.10;;;9.80;68.30;;;;;;4843681;29;20528;-89
2023/11/04 05:20:41;;;;;;;10.80;3.40;;;9.80;68.40;;;;;;4843560;29;20467;-88
2023/11/04 05:23:08;;;;;;;12.95;3.05;;;9.90;68.50;;;;;;4858531;29;20527;-89
2023/11/04 05:25:35;;;;;;;10.13;3.08;;;9.90;68.40;;;;;;4858858;29;20058;-89
2023/11/04 05:28:05;;;;;;;10.70;2.80;;;9.80;68.20;;;;;;4857314;29;20141;-88
2023/11/04 05:30:34;;;;;;;7.73;2.13;;;9.90;68.40;;;;;;4842174;29;20056;-90
2023/11/04 05:33:03;;;;;;;7.22;1.77;;;9.90;68.10;;;;;;4840609;29;20466;-89
2023/11/04 05:35:30;;;;;;;6.47;2.03;;;9.90;68.60;;;;;;4839502;29;20065;-88
2023/11/04 05:37:57;;;;;;;6.53;1.65;;;9.90;68.70;;;;;;4843135;29;20064;-90
2023/11/04 05:40:24;;;;;;;9.85;2.13;;;9.90;68.50;;;;;;4856924;29;20041;-89
2023/11/04 05:42:51;;;;;;;5.83;1.57;;;10.00;68.80;;;;;;4843106;29;20050;-89
2023/11/04 05:45:18;;;;;;;3.85;1.33;;;9.90;69.30;;;;;;4843009;29;20098;-89
2023/11/04 05:47:46;;;;;;;5.00;1.42;;;9.70;69.90;;;;;;4842806;29;20062;-89
2023/11/04 05:50:13;;;;;;;4.22;1.50;;;9.60;70.20;;;;;;4858120;29;20057;-89
2023/11/04 05:52:42;;;;;;;5.30;1.40;;;9.50;70.90;;;;;;4857946;29;20069;-89
2023/11/04 05:55:11;;;;;;;4.17;1.53;;;9.30;71.50;;;;;;4841876;29;20551;-89
2023/11/04 05:57:38;;;;;;;4.07;1.45;;;9.20;71.80;;;;;;4858037;29;20050;-88
2023/11/04 06:00:12;;;;;;;5.00;1.88;;;9.20;72.00;;;;;;4843003;29;20512;-89
2023/11/04 06:02:40;;;;;;;4.95;1.50;;;9.00;72.30;;;;;;4842753;29;20046;-90
2023/11/04 06:05:13;;;;;;;5.25;1.63;;;9.00;72.50;;;;;;4857769;29;20114;-89
2023/11/04 06:07:40;;;;;;;6.77;2.50;;;8.90;72.50;;;;;;4857239;29;20049;-89
2023/11/04 06:10:08;;;;;;;5.50;2.00;;;8.90;72.70;;;;;;4842337;29;20053;-89
2023/11/04 06:12:36;;;;;;;5.90;2.08;;;8.80;72.80;;;;;;4842369;29;20045;-88
2023/11/04 06:15:04;;;;;;;6.35;1.83;;;8.80;72.90;;;;;;4850068;29;20050;-89
2023/11/04 06:17:31;;;;;;;4.60;1.52;;;8.80;73.10;;;;;;4841409;29;20132;-90
2023/11/04 06:19:58;;;;;;;2.93;1.20;;;8.90;72.60;;;;;;4842155;29;20045;-90
2023/11/04 06:22:25;;;;;;;4.60;1.50;;;8.80;72.70;;;;;;4858331;29;20462;-89
2023/11/04 06:24:52;;;;;;;4.15;1.58;;;8.80;72.90;;;;;;4841017;29;20069;-88
2023/11/04 06:27:20;;;;;;;3.75;1.70;;;8.80;72.90;;;;;;4856911;29;20066;-87
2023/11/04 06:29:47;;;;;;;5.47;2.45;;;8.70;73.20;;;;;;4846111;29;20061;-87
2023/11/04 06:32:14;;;;;;;3.87;1.70;;;8.60;73.70;;;;;;4841700;29;20069;-87
2023/11/04 06:34:42;;;;;;;4.63;1.80;;;8.70;73.50;;;;;;4846038;29;20061;-88
2023/11/04 06:37:09;;;;;;;7.40;2.20;;;8.80;73.30;;;;;;4857116;29;20454;-88
2023/11/04 06:39:37;;;;;;;6.70;2.38;;;8.90;73.20;;;;;;4839406;29;20042;-88
2023/11/04 06:42:05;;;;;;;6.57;2.47;;;9.00;72.90;;;;;;4841519;29;20489;-88
2023/11/04 06:44:35;;;;;;;8.07;2.93;;;9.00;72.90;;;;;;4857207;29;20045;-88
2023/11/04 06:47:02;;;;;;;9.43;3.20;;;9.20;72.80;;;;;;4856070;29;20073;-89
2023/11/04 06:49:29;;;;;;;9.38;3.17;;;9.30;72.50;;;;;;4841698;29;20049;-88
2023/11/04 06:51:57;;;;;;;10.30;3.10;;;9.20;72.20;;;;;;4841695;29;20525;-88
2023/11/04 06:54:24;;;;;;;7.57;2.85;;;9.20;72.20;;;;;;4856828;29;20046;-88
2023/11/04 06:56:54;;;;;;;9.30;2.60;;;9.20;72.10;;;;;;4856175;29;20110;-89
2023/11/04 06:59:22;;;;;;;4.90;1.58;;;9.30;71.90;;;;;;4826461;29;20457;-88
2023/11/04 07:01:50;;;;;;;5.38;1.10;;;9.20;71.20;;;;;;4841649;29;20069;-88
2023/11/04 07:04:17;;;;;;;7.53;1.40;;;9.20;70.60;;;;;;4856604;29;20121;-88
2023/11/04 07:06:44;;;;;;;7.93;1.60;;;9.20;70.80;;;;;;4849984;29;20088;-87
2023/11/04 07:09:12;;;;;;;8.37;1.97;;;9.20;70.60;;;;;;4856551;29;20057;-88
2023/11/04 07:11:41;;;;;;;8.98;1.95;;;9.30;70.70;;;;;;4856481;29;20098;-88
2023/11/04 07:14:09;;;;;;;10.05;2.58;;;9.20;70.40;;;;;;4855125;29;20046;-89
2023/11/04 07:16:36;;;;;;;14.00;3.78;;;9.20;71.20;;;;;;4856331;29;20048;-88
2023/11/04 07:19:03;;;;;;;18.98;3.97;;;9.00;71.40;;;;;;4840391;29;20066;-88
2023/11/04 07:21:30;;;;;;;12.10;2.80;;;9.00;71.80;;;;;;4854617;29;20037;-87
2023/11/04 07:23:58;;;;;;;7.03;2.10;;;9.00;72.00;;;;;;4843895;29;20046;-88
2023/11/04 07:26:25;;;;;;;8.48;1.73;;;9.00;71.40;;;;;;4841192;29;20058;-88
2023/11/04 07:28:52;;;;;;;10.25;2.08;;;9.10;71.20;;;;;;4841304;29;20557;-89
2023/11/04 07:31:19;;;;;;;7.63;1.55;;;9.10;71.00;;;;;;4842033;29;20046;-89
2023/11/04 07:33:46;;;;;;;6.90;2.10;;;9.10;70.60;;;;;;4856536;29;20496;-89
2023/11/04 07:36:13;;;;;;;7.65;1.90;;;9.10;70.50;;;;;;4847743;29;20049;-89
2023/11/04 07:38:40;;;;;;;9.80;2.63;;;9.20;70.80;;;;;;4841149;29;20458;-87
2023/11/04 07:41:07;;;;;;;15.25;2.83;;;9.20;70.40;;;;;;4840696;29;20152;-86
2023/11/04 07:43:34;;;;;;;16.15;3.15;;;9.20;70.30;;;;;;4840983;29;20078;-85
2023/11/04 07:46:02;;;;;;;9.67;2.27;;;9.30;70.30;;;;;;4839905;29;20042;-85
2023/11/04 07:48:29;;;;;;;7.35;2.10;;;9.30;69.90;;;;;;4854465;29;20060;-85
2023/11/04 07:50:57;;;;;;;13.18;4.03;;;9.40;69.70;;;;;;4839550;29;20050;-85
2023/11/04 07:53:25;;;;;;;11.98;3.55;;;9.50;69.70;;;;;;4839737;29;20428;-85
2023/11/04 07:55:52;;;;;;;8.15;2.85;;;9.50;69.50;;;;;;4845336;29;20597;-85
2023/11/04 07:58:21;;;;;;;9.50;2.33;;;9.60;69.10;;;;;;4841589;29;20030;-88
2023/11/04 08:00:49;;;;;;;13.65;3.03;;;9.60;68.90;;;;;;4840572;29;20046;-91
2023/11/04 08:03:16;;;;;;;11.23;3.40;;;9.70;68.70;;;;;;4856193;29;20046;-89
2023/11/04 08:05:43;;;;;;;10.38;3.17;;;9.80;68.30;;;;;;4855504;29;20235;-87
2023/11/04 08:08:12;;;;;;;8.63;3.15;;;9.90;68.40;;;;;;4840048;29;20585;-88
2023/11/04 08:10:39;;;;;;;13.13;3.20;;;10.00;69.30;;;;;;4848389;29;20397;-88
2023/11/04 08:13:06;;;;;;;10.27;3.00;;;10.00;69.10;;;;;;4839977;29;20050;-88
2023/11/04 08:15:34;;;;;;;9.60;2.05;;;10.10;67.80;;;;;;4840606;29;20066;-88
2023/11/04 08:18:01;;;;;;;6.03;1.80;;;10.20;67.40;;;;;;4848801;29;20099;-88
2023/11/04 08:20:28;;;;;;;8.88;2.35;;;10.20;67.20;;;;;;4848040;29;20070;-89
2023/11/04 08:22:56;;;;;;;8.20;1.90;;;10.20;67.00;;;;;;4855301;29;20106;-88
2023/11/04 08:25:23;;;;;;;2.70;0.73;;;10.20;65.80;;;;;;4846582;29;20042;-88
2023/11/04 08:27:51;;;;;;;3.33;1.08;;;10.10;64.60;;;;;;4855859;29;20054;-90
2023/11/04 08:30:19;;;;;;;3.42;0.90;;;10.10;64.50;;;;;;4856686;29;20075;-89
2023/11/04 08:32:46;;;;;;;1.70;0.70;;;10.10;65.10;;;;;;4844327;29;20050;-90
2023/11/04 08:35:14;;;;;;;4.30;0.93;;;10.10;63.40;;;;;;4843900;29;20062;-90
2023/11/04 08:37:41;;;;;;;2.22;0.70;;;10.10;64.50;;;;;;4858959;29;20050;-88
2023/11/04 08:40:09;;;;;;;5.78;1.20;;;10.20;64.10;;;;;;4842669;29;20045;-88
2023/11/04 08:42:36;;;;;;;3.63;0.90;;;10.30;64.60;;;;;;4843670;29;20042;-88
2023/11/04 08:45:03;;;;;;;4.57;1.10;;;10.30;63.80;;;;;;4843855;29;20057;-88
2023/11/04 08:47:30;;;;;;;2.20;0.70;;;10.40;63.70;;;;;;4858856;29;20041;-90
2023/11/04 08:49:57;;;;;;;4.57;1.00;;;10.40;63.30;;;;;;4858960;29;20056;-89
2023/11/04 08:52:25;;;;;;;5.18;1.63;;;10.50;63.60;;;;;;4858295;29;20066;-89
2023/11/04 08:54:52;;;;;;;4.28;1.10;;;10.50;63.30;;;;;;4843576;29;20079;-88
2023/11/04 08:57:20;;;;;;;3.08;1.00;;;10.50;62.90;;;;;;4843408;29;20580;-89
2023/11/04 08:59:47;;;;;;;3.50;1.03;;;10.50;63.20;;;;;;4843150;29;20133;-89
2023/11/04 09:02:14;;;;;;;4.15;0.95;;;10.50;63.40;;;;;;4843335;29;20119;-89
2023/11/04 09:04:43;;;;;;;2.97;0.90;;;10.60;63.20;;;;;;4843355;29;20053;-89
2023/11/04 09:07:15;;;;;;;3.97;1.00;;;10.70;63.10;;;;;;4848754;29;20050;-88
2023/11/04 09:09:42;;;;;;;3.05;0.88;;;10.60;61.90;;;;;;4840400;29;20046;-89
2023/11/04 09:12:09;;;;;;;3.33;1.13;;;10.60;62.40;;;;;;4842472;29;20054;-89
2023/11/04 09:14:36;;;;;;;3.65;1.30;;;10.60;63.50;;;;;;4832792;29;20053;-88
2023/11/04 09:17:03;;;;;;;4.03;1.45;;;10.60;64.20;;;;;;4842605;29;20596;-88
2023/11/04 09:19:31;;;;;;;3.13;1.10;;;10.60;64.70;;;;;;4859298;29;20136;-88
2023/11/04 09:21:58;;;;;;;3.85;1.17;;;10.60;63.10;;;;;;4842535;29;20054;-87
2023/11/04 09:24:25;;;;;;;4.77;1.20;;;10.60;62.70;;;;;;4858282;29;20041;-89
2023/11/04 09:26:53;;;;;;;3.88;1.10;;;10.70;63.00;;;;;;4858329;29;20064;-89
2023/11/04 09:29:20;;;;;;;3.88;1.00;;;10.80;63.40;;;;;;4843036;29;20045;-90
2023/11/04 09:31:49;;;;;;;4.30;1.02;;;10.80;61.90;;;;;;4858603;29;20054;-90
2023/11/04 09:34:17;;;;;;;2.42;0.82;;;10.80;62.00;;;;;;4842091;29;20404;-88
2023/11/04 09:36:44;;;;;;;3.40;1.60;;;10.90;61.80;;;;;;4842061;29;20757;-87
2023/11/04 09:39:16;;;;;;;4.32;1.60;;;10.90;62.00;;;;;;4857706;29;20046;-90
2023/11/04 09:41:43;;;;;;;6.13;1.52;;;10.90;62.90;;;;;;4857818;29;20106;-88
2023/11/04 09:44:10;;;;;;;2.50;1.00;;;10.90;62.50;;;;;;4842669;29;20512;-89
2023/11/04 09:46:37;;;;;;;2.95;0.80;;;10.90;61.60;;;;;;4857973;29;20065;-88
2023/11/04 09:49:04;;;;;;;4.77;1.00;;;11.00;62.30;;;;;;4857873;29;20050;-89
2023/11/04 09:51:33;;;;;;;1.77;0.77;;;11.00;60.80;;;;;;4858182;29;20473;-89
2023/11/04 09:54:00;;;;;;;3.35;0.75;;;11.00;61.00;;;;;;4858182;29;20046;-89
2023/11/04 09:56:29;;;;;;;4.30;0.60;;;11.00;60.90;;;;;;4858176;29;20046;-90
2023/11/04 09:58:56;;;;;;;3.45;0.88;;;11.10;60.90;;;;;;4847206;29;20049;-90
2023/11/04 10:01:23;;;;;;;3.77;1.00;;;11.10;61.20;;;;;;4842770;29;20075;-88
2023/11/04 10:03:51;;;;;;;6.63;1.48;;;11.20;61.40;;;;;;4857824;29;20493;-88
2023/11/04 10:06:18;;;;;;;7.95;1.58;;;11.30;61.40;;;;;;4859310;29;20049;-90
2023/11/04 10:08:46;;;;;;;4.28;1.58;;;11.30;61.00;;;;;;4843746;29;20136;-91
2023/11/04 10:11:13;;;;;;;4.40;1.10;;;11.20;60.90;;;;;;4843717;29;20086;-92
2023/11/04 10:13:42;;;;;;;7.20;1.30;;;11.20;60.60;;;;;;4844162;29;20057;-93
2023/11/04 10:16:12;;;;;;;4.35;1.00;;;11.10;60.90;;;;;;4860111;29;20140;-91
2023/11/04 10:18:42;;;;;;;4.35;1.00;;;11.10;61.20;;;;;;4858832;29;20489;-91
2023/11/04 10:21:10;;;;;;;4.82;0.95;;;11.00;61.50;;;;;;4858690;29;20050;-93
2023/11/04 10:23:38;;;;;;;10.70;2.47;;;11.00;61.50;;;;;;4843035;29;20137;-92
2023/11/04 10:26:05;;;;;;;17.27;2.97;;;11.00;61.20;;;;;;4857144;29;20060;-91
2023/11/04 10:28:35;;;;;;;18.60;1.98;;;11.00;60.60;;;;;;4854877;29;20069;-92
2023/11/04 10:31:04;;;;;;;8.10;2.00;;;11.00;62.10;;;;;;4842332;29;20049;-91
2023/11/04 10:33:42;;;;;;;5.25;1.55;;;11.00;61.80;;;;;;4845635;29;20139;-93
2023/11/04 10:36:17;;;;;;;5.53;1.15;;;11.00;61.30;;;;;;4858280;29;20054;-91
2023/11/04 10:38:57;;;;;;;5.20;1.40;;;11.00;61.90;;;;;;4857752;29;20050;-92
2023/11/04 10:41:36;;;;;;;5.50;1.40;;;11.00;61.90;;;;;;4848686;29;20042;-91
2023/11/04 10:44:10;;;;;;;10.18;2.25;;;11.00;61.40;;;;;;4843762;29;20058;-92
2023/11/04 10:46:44;;;;;;;9.55;2.13;;;11.10;61.60;;;;;;4828405;29;20087;-93
2023/11/04 10:49:43;;;;;;;6.32;1.40;;;11.20;61.60;;;;;;4844972;29;20130;-88
2023/11/04 10:52:13;;;;;;;8.53;1.80;;;11.30;62.00;;;;;;4845963;29;20042;-90
2023/11/04 10:54:54;;;;;;;7.20;1.40;;;11.50;62.40;;;;;;4858361;29;20053;-89
2023/11/04 10:57:33;;;;;;;8.15;1.40;;;11.50;60.20;;;;;;4842469;29;20042;-89
2023/11/04 11:00:13;;;;;;;8.00;1.88;;;11.50;60.20;;;;;;4843869;29;20037;-88
2023/11/04 11:02:45;;;;;;;5.07;1.30;;;11.60;61.40;;;;;;4842431;29;20057;-88
2023/11/04 11:05:14;;;;;;;10.70;1.97;;;11.60;60.60;;;;;;4857873;29;20042;-90
2023/11/04 11:07:45;;;;;;;4.80;1.20;;;11.70;60.00;;;;;;4855685;29;20527;-90
2023/11/04 11:10:20;;;;;;;4.30;1.10;;;11.60;58.90;;;;;;4857668;29;20046;-91
2023/11/04 11:13:13;;;;;;;5.20;1.27;;;11.50;60.10;;;;;;4857563;29;20058;-91
2023/11/04 11:15:41;;;;;;;6.65;1.40;;;11.40;60.50;;;;;;4855719;29;20148;-91
2023/11/04 11:18:11;;;;;;;5.40;1.50;;;11.40;61.30;;;;;;4842276;29;20149;-91
2023/11/04 11:20:38;;;;;;;4.45;1.10;;;11.40;62.50;;;;;;4842079;29;20045;-90
2023/11/04 11:23:08;;;;;;;3.95;1.08;;;11.40;62.00;;;;;;4858173;29;21635;-90
2023/11/04 11:25:39;;;;;;;3.97;1.30;;;11.30;62.30;;;;;;4843398;29;20053;-91
2023/11/04 11:28:21;;;;;;;3.63;1.00;;;11.30;62.00;;;;;;4842558;29;20505;-91
2023/11/04 11:30:55;;;;;;;4.37;1.10;;;11.40;62.10;;;;;;4855453;29;20054;-90
2023/11/04 11:33:27;;;;;;;2.67;0.90;;;11.40;62.20;;;;;;4838928;29;20591;-86
2023/11/04 11:36:06;;;;;;;3.70;1.50;;;11.50;62.00;;;;;;4840961;29;20106;-87
2023/11/04 11:38:35;;;;;;;4.97;1.30;;;11.70;62.20;;;;;;4856371;29;20501;-88
2023/11/04 11:41:10;;;;;;;3.67;1.10;;;11.90;61.40;;;;;;4820521;29;20042;-88
2023/11/04 11:43:38;;;;;;;5.77;1.10;;;12.00;60.30;;;;;;4856900;29;20109;-87
2023/11/04 11:46:05;;;;;;;4.85;1.30;;;12.10;60.90;;;;;;4841852;29;20050;-87
2023/11/04 11:48:38;;;;;;;3.22;0.93;;;12.30;60.80;;;;;;4842006;29;20046;-88
2023/11/04 11:51:07;;;;;;;4.15;1.20;;;12.30;60.80;;;;;;4857533;29;20141;-89
2023/11/04 11:53:42;;;;;;;3.50;1.27;;;12.30;61.70;;;;;;4841891;29;20057;-88
2023/11/04 11:56:10;;;;;;;3.80;1.30;;;12.30;60.00;;;;;;4857741;29;20137;-89
2023/11/04 11:58:39;;;;;;;4.35;1.40;;;12.30;60.60;;;;;;4826580;29;20337;-88
2023/11/04 12:01:08;;;;;;;6.15;1.65;;;12.30;61.20;;;;;;4841225;29;20079;-89
2023/11/04 12:03:36;;;;;;;4.03;1.17;;;12.20;61.20;;;;;;4846271;29;20050;-88
2023/11/04 12:06:04;;;;;;;6.30;1.73;;;12.10;59.90;;;;;;4856019;29;20053;-88
2023/11/04 12:08:31;;;;;;;2.93;1.17;;;12.10;61.40;;;;;;4845533;29;20525;-88
2023/11/04 12:10:59;;;;;;;5.38;1.50;;;12.00;60.20;;;;;;4859940;29;20080;-88
2023/11/04 12:13:26;;;;;;;7.03;1.60;;;12.10;61.00;;;;;;4841672;29;20050;-89
2023/11/04 12:15:53;;;;;;;4.50;1.48;;;12.10;60.80;;;;;;4844642;29;20046;-88
2023/11/04 12:18:21;;;;;;;3.13;1.10;;;12.00;60.30;;;;;;4845037;29;20046;-88
2023/11/04 12:20:48;;;;;;;4.40;1.57;;;12.00;60.70;;;;;;4844956;29;20056;-88
2023/11/04 12:23:15;;;;;;;6.60;1.80;;;11.90;61.30;;;;;;4844521;29;20102;-89
2023/11/04 12:25:43;;;;;;;6.13;1.58;;;11.90;61.00;;;;;;4859889;29;20045;-88
2023/11/04 12:28:12;;;;;;;6.97;1.98;;;11.80;61.10;;;;;;4859342;29;20492;-88
2023/11/04 12:30:39;;;;;;;3.70;1.40;;;11.80;61.50;;;;;;4860285;29;20082;-88
2023/11/04 12:33:09;;;;;;;5.17;1.37;;;11.70;61.90;;;;;;4844620;29;20061;-88
2023/11/04 12:35:36;;;;;;;5.13;1.50;;;11.70;62.10;;;;;;4859581;29;20054;-89
2023/11/04 12:38:05;;;;;;;5.18;1.70;;;11.80;62.70;;;;;;4844610;29;20049;-88
2023/11/04 12:40:34;;;;;;;6.38;1.77;;;11.80;62.30;;;;;;4836716;29;20053;-87
2023/11/04 12:43:08;;;;;;;3.75;1.23;;;11.90;61.20;;;;;;4843046;29;20463;-89
2023/11/04 12:45:38;;;;;;;7.07;2.70;;;11.90;61.20;;;;;;4827939;29;20049;-88
2023/11/04 12:48:05;;;;;;;7.07;2.35;;;11.90;61.10;;;;;;4852405;29;20084;-87
2023/11/04 12:50:33;;;;;;;5.82;1.77;;;11.90;60.50;;;;;;4859422;29;20110;-90
2023/11/04 12:53:00;;;;;;;12.55;1.65;;;11.80;61.10;;;;;;4857970;29;20057;-89
2023/11/04 12:55:28;;;;;;;5.95;1.52;;;11.70;61.00;;;;;;4830287;29;20446;-89
2023/11/04 12:57:55;;;;;;;6.13;2.20;;;11.60;61.10;;;;;;4847730;29;20041;-89
2023/11/04 13:00:22;;;;;;;4.88;1.50;;;11.60;61.20;;;;;;4843516;29;20050;-89